sensor_id;sensor_type;location;lat;lon;timestamp;temperature;humidity
7934;DHT22;4012;48.896;9.192;2023-09-30T00:01:26;17.20;99.90
7934;DHT22;4012;48.896;9.192;2023-09-30T00:03:52;17.30;99.90
7934;DHT22;4012;48.896;9.192;2023-09-30T00:06:17;17.20;99.90
7934;DHT22;4012;48.896;9.192;2023-09-30T00:08:43;17.20;99.90
7934;DHT22;4012;48.896;9.192;2023-09-30T00:11:09;17.20;99.90
7934;DHT22;4012;48.896;9.192;2023-09-30T00:13:35;17.20;99.90
7934;DHT22;4012;48.896;9.192;2023-09-30T00:16:00;17.10;99.90
7934;DHT22;4012;48.896;9.192;2023-09-30T00:18:26;17.00;99.90
7934;DHT22;4012;48.896;9.192;2023-09-30T00:20:53;17.00;99.90
7934;DHT22;4012;48.896;9.192;2023-09-30T00:23:18;16.90;99.90
7934;DHT22;4012;48.896;9.192;2023-09-30T00:25:47;16.80;99.90
7934;DHT22;4012;48.896;9.192;2023-09-30T00:28:14;16.80;99.90
7934;DHT22;4012;48.896;9.192;2023-09-30T00:30:40;16.80;99.90
7934;DHT22;4012;48.896;9.192;2023-09-30T00:33:05;16.70;99.90
7934;DHT22;4012;48.896;9.192;2023-09-30T00:35:32;16.70;99.90
7934;DHT22;4012;48.896;9.192;2023-09-30T00:37:58;16.70;99.90
7934;DHT22;4012;48.896;9.192;2023-09-30T00:40:23;16.60;99.90
7934;DHT22;4012;48.896;9.192;2023-09-30T00:42:49;16.60;99.90
7934;DHT22;4012;48.896;9.192;2023-09-30T00:45:14;16.60;99.90
7934;DHT22;4012;48.896;9.192;2023-09-30T00:47:40;16.60;99.90
7934;DHT22;4012;48.896;9.192;2023-09-30T00:50:07;16.60;99.90
7934;DHT22;4012;48.896;9.192;2023-09-30T00:52:35;16.60;99.90
7934;DHT22;4012;48.896;9.192;2023-09-30T00:55:01;16.60;99.90
7934;DHT22;4012;48.896;9.192;2023-09-30T00:57:31;16.60;99.90
7934;DHT22;4012;48.896;9.192;2023-09-30T00:59:58;16.50;99.90
7934;DHT22;4012;48.896;9.192;2023-09-30T01:02:24;16.50;99.90
7934;DHT22;4012;48.896;9.192;2023-09-30T01:04:50;16.40;99.90
7934;DHT22;4012;48.896;9.192;2023-09-30T01:07:16;16.40;99.90
7934;DHT22;4012;48.896;9.192;2023-09-30T01:09:41;16.40;99.90
7934;DHT22;4012;48.896;9.192;2023-09-30T01:12:07;16.40;99.90
7934;DHT22;4012;48.896;9.192;2023-09-30T01:14:34;16.40;99.90
7934;DHT22;4012;48.896;9.192;2023-09-30T01:17:01;16.40;99.90
7934;DHT22;4012;48.896;9.192;2023-09-30T01:19:27;16.40;99.90
7934;DHT22;4012;48.896;9.192;2023-09-30T01:22:01;16.40;99.90
7934;DHT22;4012;48.896;9.192;2023-09-30T01:24:31;16.50;99.90
7934;DHT22;4012;48.896;9.192;2023-09-30T01:26:57;16.40;99.90
7934;DHT22;4012;48.896;9.192;2023-09-30T01:29:23;16.40;99.90
7934;DHT22;4012;48.896;9.192;2023-09-30T01:31:51;16.40;99.90
7934;DHT22;4012;48.896;9.192;2023-09-30T01:34:16;16.40;99.90
7934;DHT22;4012;48.896;9.192;2023-09-30T01:36:43;16.40;99.90
7934;DHT22;4012;48.896;9.192;2023-09-30T01:39:12;16.30;99.90
7934;DHT22;4012;48.896;9.192;2023-09-30T01:41:39;16.30;99.90
7934;DHT22;4012;48.896;9.192;2023-09-30T01:44:05;16.30;99.90
7934;DHT22;4012;48.896;9.192;2023-09-30T01:46:31;16.30;99.90
7934;DHT22;4012;48.896;9.192;2023-09-30T01:48:56;16.30;99.90
7934;DHT22;4012;48.896;9.192;2023-09-30T01:51:22;16.40;99.90
7934;DHT22;4012;48.896;9.192;2023-09-30T01:53:47;16.40;99.90
7934;DHT22;4012;48.896;9.192;2023-09-30T01:56:13;16.40;99.90
7934;DHT22;4012;48.896;9.192;2023-09-30T01:58:39;16.40;99.90
7934;DHT22;4012;48.896;9.192;2023-09-30T02:01:05;16.40;99.90
7934;DHT22;4012;48.896;9.192;2023-09-30T02:03:30;16.30;99.90
7934;DHT22;4012;48.896;9.192;2023-09-30T02:05:57;16.40;99.90
7934;DHT22;4012;48.896;9.192;2023-09-30T02:08:23;16.30;99.90
7934;DHT22;4012;48.896;9.192;2023-09-30T02:10:49;16.20;99.90
7934;DHT22;4012;48.896;9.192;2023-09-30T02:13:16;16.10;99.90
7934;DHT22;4012;48.896;9.192;2023-09-30T02:15:42;16.10;99.90
7934;DHT22;4012;48.896;9.192;2023-09-30T02:18:08;16.00;99.90
7934;DHT22;4012;48.896;9.192;2023-09-30T02:20:35;16.00;99.90
7934;DHT22;4012;48.896;9.192;2023-09-30T02:23:08;15.90;99.90
7934;DHT22;4012;48.896;9.192;2023-09-30T02:25:39;15.90;99.90
7934;DHT22;4012;48.896;9.192;2023-09-30T02:28:06;15.80;99.90
7934;DHT22;4012;48.896;9.192;2023-09-30T02:30:32;15.80;99.90
7934;DHT22;4012;48.896;9.192;2023-09-30T02:32:58;15.80;99.90
7934;DHT22;4012;48.896;9.192;2023-09-30T02:35:23;15.80;99.90
7934;DHT22;4012;48.896;9.192;2023-09-30T02:37:50;15.80;99.90
7934;DHT22;4012;48.896;9.192;2023-09-30T02:40:21;15.70;99.90
7934;DHT22;4012;48.896;9.192;2023-09-30T02:42:50;15.70;99.90
7934;DHT22;4012;48.896;9.192;2023-09-30T02:45:17;15.70;99.90
7934;DHT22;4012;48.896;9.192;2023-09-30T02:47:43;15.70;99.90
7934;DHT22;4012;48.896;9.192;2023-09-30T02:50:09;15.70;99.90
7934;DHT22;4012;48.896;9.192;2023-09-30T02:52:39;15.60;99.90
7934;DHT22;4012;48.896;9.192;2023-09-30T02:55:08;15.60;99.90
7934;DHT22;4012;48.896;9.192;2023-09-30T02:57:33;15.60;99.90
7934;DHT22;4012;48.896;9.192;2023-09-30T03:00:04;15.60;99.90
7934;DHT22;4012;48.896;9.192;2023-09-30T03:02:42;15.50;99.90
7934;DHT22;4012;48.896;9.192;2023-09-30T03:05:08;15.50;99.90
7934;DHT22;4012;48.896;9.192;2023-09-30T03:07:33;15.50;99.90
7934;DHT22;4012;48.896;9.192;2023-09-30T03:09:59;15.50;99.90
7934;DHT22;4012;48.896;9.192;2023-09-30T03:12:30;15.40;99.90
7934;DHT22;4012;48.896;9.192;2023-09-30T03:14:56;15.50;99.90
7934;DHT22;4012;48.896;9.192;2023-09-30T03:17:36;15.50;99.90
7934;DHT22;4012;48.896;9.192;2023-09-30T03:20:11;15.50;99.90
7934;DHT22;4012;48.896;9.192;2023-09-30T03:22:50;15.50;99.90
7934;DHT22;4012;48.896;9.192;2023-09-30T03:25:17;15.50;99.90
7934;DHT22;4012;48.896;9.192;2023-09-30T03:27:43;15.50;99.90
7934;DHT22;4012;48.896;9.192;2023-09-30T03:30:10;15.50;99.90
7934;DHT22;4012;48.896;9.192;2023-09-30T03:32:37;15.40;99.90
7934;DHT22;4012;48.896;9.192;2023-09-30T03:35:07;15.40;99.90
7934;DHT22;4012;48.896;9.192;2023-09-30T03:37:33;15.40;99.90
7934;DHT22;4012;48.896;9.192;2023-09-30T03:40:00;15.40;99.90
7934;DHT22;4012;48.896;9.192;2023-09-30T03:42:31;15.40;99.90
7934;DHT22;4012;48.896;9.192;2023-09-30T03:44:57;15.30;99.90
7934;DHT22;4012;48.896;9.192;2023-09-30T03:47:22;15.40;99.90
7934;DHT22;4012;48.896;9.192;2023-09-30T03:49:49;15.40;99.90
7934;DHT22;4012;48.896;9.192;2023-09-30T03:52:14;15.50;99.90
7934;DHT22;4012;48.896;9.192;2023-09-30T03:54:40;15.50;99.90
7934;DHT22;4012;48.896;9.192;2023-09-30T03:57:10;15.50;99.90
7934;DHT22;4012;48.896;9.192;2023-09-30T03:59:38;15.50;99.90
7934;DHT22;4012;48.896;9.192;2023-09-30T04:02:03;15.60;99.90
7934;DHT22;4012;48.896;9.192;2023-09-30T04:04:29;15.60;99.90
7934;DHT22;4012;48.896;9.192;2023-09-30T04:06:55;15.60;99.90
7934;DHT22;4012;48.896;9.192;2023-09-30T04:09:20;15.70;99.90
7934;DHT22;4012;48.896;9.192;2023-09-30T04:11:46;15.70;99.90
7934;DHT22;4012;48.896;9.192;2023-09-30T04:14:11;15.70;99.90
7934;DHT22;4012;48.896;9.192;2023-09-30T04:16:37;15.80;99.90
7934;DHT22;4012;48.896;9.192;2023-09-30T04:19:03;15.70;99.90
7934;DHT22;4012;48.896;9.192;2023-09-30T04:21:30;15.80;99.90
7934;DHT22;4012;48.896;9.192;2023-09-30T04:23:57;15.80;99.90
7934;DHT22;4012;48.896;9.192;2023-09-30T04:26:23;15.80;99.90
7934;DHT22;4012;48.896;9.192;2023-09-30T04:28:50;15.80;99.90
7934;DHT22;4012;48.896;9.192;2023-09-30T04:31:16;15.80;99.90
7934;DHT22;4012;48.896;9.192;2023-09-30T04:33:42;15.80;99.90
7934;DHT22;4012;48.896;9.192;2023-09-30T04:36:08;15.80;99.90
7934;DHT22;4012;48.896;9.192;2023-09-30T04:38:35;15.80;99.90
7934;DHT22;4012;48.896;9.192;2023-09-30T04:41:03;15.80;99.90
7934;DHT22;4012;48.896;9.192;2023-09-30T04:43:29;15.90;99.90
7934;DHT22;4012;48.896;9.192;2023-09-30T04:45:54;15.90;99.90
7934;DHT22;4012;48.896;9.192;2023-09-30T04:48:23;15.90;99.90
7934;DHT22;4012;48.896;9.192;2023-09-30T04:50:49;15.90;99.90
7934;DHT22;4012;48.896;9.192;2023-09-30T04:53:14;15.90;99.90
7934;DHT22;4012;48.896;9.192;2023-09-30T04:55:43;15.90;99.90
7934;DHT22;4012;48.896;9.192;2023-09-30T04:58:08;15.90;99.90
7934;DHT22;4012;48.896;9.192;2023-09-30T05:00:34;15.80;99.90
7934;DHT22;4012;48.896;9.192;2023-09-30T05:03:00;15.80;99.90
7934;DHT22;4012;48.896;9.192;2023-09-30T05:05:26;15.80;99.90
7934;DHT22;4012;48.896;9.192;2023-09-30T05:07:52;15.80;99.90
7934;DHT22;4012;48.896;9.192;2023-09-30T05:10:17;15.80;99.90
7934;DHT22;4012;48.896;9.192;2023-09-30T05:12:45;15.70;99.90
7934;DHT22;4012;48.896;9.192;2023-09-30T05:15:12;15.60;99.90
7934;DHT22;4012;48.896;9.192;2023-09-30T05:17:38;15.60;99.90
7934;DHT22;4012;48.896;9.192;2023-09-30T05:20:04;15.50;99.90
7934;DHT22;4012;48.896;9.192;2023-09-30T05:22:33;15.50;99.90
7934;DHT22;4012;48.896;9.192;2023-09-30T05:24:59;15.50;99.90
7934;DHT22;4012;48.896;9.192;2023-09-30T05:27:25;15.50;99.90
7934;DHT22;4012;48.896;9.192;2023-09-30T05:29:52;15.50;99.90
7934;DHT22;4012;48.896;9.192;2023-09-30T05:32:18;15.50;99.90
7934;DHT22;4012;48.896;9.192;2023-09-30T05:34:44;15.50;99.90
7934;DHT22;4012;48.896;9.192;2023-09-30T05:37:09;15.50;99.90
7934;DHT22;4012;48.896;9.192;2023-09-30T05:39:35;15.50;99.90
7934;DHT22;4012;48.896;9.192;2023-09-30T05:42:01;15.50;99.90
7934;DHT22;4012;48.896;9.192;2023-09-30T05:44:26;15.50;99.90
7934;DHT22;4012;48.896;9.192;2023-09-30T05:46:53;15.50;99.90
7934;DHT22;4012;48.896;9.192;2023-09-30T05:49:20;15.50;99.90
7934;DHT22;4012;48.896;9.192;2023-09-30T05:51:45;15.60;99.90
7934;DHT22;4012;48.896;9.192;2023-09-30T05:54:14;15.70;99.90
7934;DHT22;4012;48.896;9.192;2023-09-30T05:56:39;15.70;99.90
7934;DHT22;4012;48.896;9.192;2023-09-30T05:59:09;15.80;99.90
7934;DHT22;4012;48.896;9.192;2023-09-30T06:01:35;15.80;99.90
7934;DHT22;4012;48.896;9.192;2023-09-30T06:04:01;15.90;99.90
7934;DHT22;4012;48.896;9.192;2023-09-30T06:06:27;15.80;99.90
7934;DHT22;4012;48.896;9.192;2023-09-30T06:08:59;15.90;99.90
7934;DHT22;4012;48.896;9.192;2023-09-30T06:11:25;15.90;99.90
7934;DHT22;4012;48.896;9.192;2023-09-30T06:13:57;16.00;99.90
7934;DHT22;4012;48.896;9.192;2023-09-30T06:16:26;16.00;99.90
7934;DHT22;4012;48.896;9.192;2023-09-30T06:18:53;16.00;99.90
7934;DHT22;4012;48.896;9.192;2023-09-30T06:21:24;16.20;99.90
7934;DHT22;4012;48.896;9.192;2023-09-30T06:23:50;16.30;99.90
7934;DHT22;4012;48.896;9.192;2023-09-30T06:26:19;16.30;99.90
7934;DHT22;4012;48.896;9.192;2023-09-30T06:28:46;16.30;99.90
7934;DHT22;4012;48.896;9.192;2023-09-30T06:31:13;16.30;99.90
7934;DHT22;4012;48.896;9.192;2023-09-30T06:33:39;16.30;99.90
7934;DHT22;4012;48.896;9.192;2023-09-30T06:36:09;16.20;99.90
7934;DHT22;4012;48.896;9.192;2023-09-30T06:38:36;16.10;99.90
7934;DHT22;4012;48.896;9.192;2023-09-30T06:41:02;16.10;99.90
7934;DHT22;4012;48.896;9.192;2023-09-30T06:43:28;16.20;99.90
7934;DHT22;4012;48.896;9.192;2023-09-30T06:45:53;16.40;99.90
7934;DHT22;4012;48.896;9.192;2023-09-30T06:48:20;16.70;99.90
7934;DHT22;4012;48.896;9.192;2023-09-30T06:50:47;16.90;99.90
7934;DHT22;4012;48.896;9.192;2023-09-30T06:53:15;17.10;99.90
7934;DHT22;4012;48.896;9.192;2023-09-30T06:55:42;17.00;99.90
7934;DHT22;4012;48.896;9.192;2023-09-30T06:58:09;17.10;99.90
7934;DHT22;4012;48.896;9.192;2023-09-30T07:00:36;17.00;99.90
7934;DHT22;4012;48.896;9.192;2023-09-30T07:03:02;16.90;99.90
7934;DHT22;4012;48.896;9.192;2023-09-30T07:05:29;16.90;99.90
7934;DHT22;4012;48.896;9.192;2023-09-30T07:07:55;17.10;99.90
7934;DHT22;4012;48.896;9.192;2023-09-30T07:10:20;17.40;99.90
7934;DHT22;4012;48.896;9.192;2023-09-30T07:12:46;17.60;99.90
7934;DHT22;4012;48.896;9.192;2023-09-30T07:15:12;17.80;99.90
7934;DHT22;4012;48.896;9.192;2023-09-30T07:17:39;17.70;99.90
7934;DHT22;4012;48.896;9.192;2023-09-30T07:20:05;17.60;99.90
7934;DHT22;4012;48.896;9.192;2023-09-30T07:22:31;17.40;99.90
7934;DHT22;4012;48.896;9.192;2023-09-30T07:24:57;17.60;99.90
7934;DHT22;4012;48.896;9.192;2023-09-30T07:27:23;17.80;99.90
7934;DHT22;4012;48.896;9.192;2023-09-30T07:29:49;17.70;99.90
7934;DHT22;4012;48.896;9.192;2023-09-30T07:32:15;18.10;99.90
7934;DHT22;4012;48.896;9.192;2023-09-30T07:34:41;19.40;99.90
7934;DHT22;4012;48.896;9.192;2023-09-30T07:37:06;20.70;99.90
7934;DHT22;4012;48.896;9.192;2023-09-30T07:39:32;21.20;99.90
7934;DHT22;4012;48.896;9.192;2023-09-30T07:41:58;22.00;99.90
7934;DHT22;4012;48.896;9.192;2023-09-30T07:44:23;22.00;99.90
7934;DHT22;4012;48.896;9.192;2023-09-30T07:46:49;22.30;99.90
7934;DHT22;4012;48.896;9.192;2023-09-30T07:49:14;22.60;99.90
7934;DHT22;4012;48.896;9.192;2023-09-30T07:51:40;24.30;99.90
7934;DHT22;4012;48.896;9.192;2023-09-30T07:54:06;24.90;99.90
7934;DHT22;4012;48.896;9.192;2023-09-30T07:56:31;24.90;99.90
7934;DHT22;4012;48.896;9.192;2023-09-30T07:58:57;25.00;99.90
7934;DHT22;4012;48.896;9.192;2023-09-30T08:01:23;23.20;99.90
7934;DHT22;4012;48.896;9.192;2023-09-30T08:03:48;20.60;99.90
7934;DHT22;4012;48.896;9.192;2023-09-30T08:06:14;19.90;99.90
7934;DHT22;4012;48.896;9.192;2023-09-30T08:08:40;20.50;99.90
7934;DHT22;4012;48.896;9.192;2023-09-30T08:11:06;20.80;99.90
7934;DHT22;4012;48.896;9.192;2023-09-30T08:13:32;20.10;99.90
7934;DHT22;4012;48.896;9.192;2023-09-30T08:16:01;20.50;99.90
7934;DHT22;4012;48.896;9.192;2023-09-30T08:18:27;21.70;99.90
7934;DHT22;4012;48.896;9.192;2023-09-30T08:20:52;21.50;99.90
7934;DHT22;4012;48.896;9.192;2023-09-30T08:23:18;20.70;99.90
7934;DHT22;4012;48.896;9.192;2023-09-30T08:25:43;20.70;99.90
7934;DHT22;4012;48.896;9.192;2023-09-30T08:28:09;22.10;99.90
7934;DHT22;4012;48.896;9.192;2023-09-30T08:30:38;22.40;99.90
7934;DHT22;4012;48.896;9.192;2023-09-30T08:33:04;22.50;99.90
7934;DHT22;4012;48.896;9.192;2023-09-30T08:35:37;22.20;99.90
7934;DHT22;4012;48.896;9.192;2023-09-30T08:38:04;22.10;99.90
7934;DHT22;4012;48.896;9.192;2023-09-30T08:40:30;21.30;99.90
7934;DHT22;4012;48.896;9.192;2023-09-30T08:42:55;21.60;99.90
7934;DHT22;4012;48.896;9.192;2023-09-30T08:45:21;22.60;99.90
7934;DHT22;4012;48.896;9.192;2023-09-30T08:47:47;24.50;99.90
7934;DHT22;4012;48.896;9.192;2023-09-30T08:50:13;24.80;99.90
7934;DHT22;4012;48.896;9.192;2023-09-30T08:52:41;24.80;99.90
7934;DHT22;4012;48.896;9.192;2023-09-30T08:55:11;23.90;99.90
7934;DHT22;4012;48.896;9.192;2023-09-30T08:57:46;23.60;99.90
7934;DHT22;4012;48.896;9.192;2023-09-30T09:00:13;23.40;99.90
7934;DHT22;4012;48.896;9.192;2023-09-30T09:02:40;22.50;99.90
7934;DHT22;4012;48.896;9.192;2023-09-30T09:05:06;23.70;99.90
7934;DHT22;4012;48.896;9.192;2023-09-30T09:07:32;24.40;99.90
7934;DHT22;4012;48.896;9.192;2023-09-30T09:10:08;23.80;99.90
7934;DHT22;4012;48.896;9.192;2023-09-30T09:12:35;21.70;99.90
7934;DHT22;4012;48.896;9.192;2023-09-30T09:15:02;20.80;99.90
7934;DHT22;4012;48.896;9.192;2023-09-30T09:17:41;20.30;99.90
7934;DHT22;4012;48.896;9.192;2023-09-30T09:20:21;20.50;99.90
7934;DHT22;4012;48.896;9.192;2023-09-30T09:22:49;20.70;99.90
7934;DHT22;4012;48.896;9.192;2023-09-30T09:25:16;21.70;99.90
7934;DHT22;4012;48.896;9.192;2023-09-30T09:27:42;23.70;99.90
7934;DHT22;4012;48.896;9.192;2023-09-30T09:30:34;25.50;99.90
7934;DHT22;4012;48.896;9.192;2023-09-30T09:33:04;27.50;99.90
7934;DHT22;4012;48.896;9.192;2023-09-30T09:35:34;26.10;99.90
7934;DHT22;4012;48.896;9.192;2023-09-30T09:38:07;25.30;99.90
7934;DHT22;4012;48.896;9.192;2023-09-30T09:40:36;24.40;99.90
7934;DHT22;4012;48.896;9.192;2023-09-30T09:43:04;24.10;99.90
7934;DHT22;4012;48.896;9.192;2023-09-30T09:45:33;23.40;99.90
7934;DHT22;4012;48.896;9.192;2023-09-30T09:47:59;24.50;99.90
7934;DHT22;4012;48.896;9.192;2023-09-30T09:50:25;24.80;99.90
7934;DHT22;4012;48.896;9.192;2023-09-30T09:52:54;25.20;99.90
7934;DHT22;4012;48.896;9.192;2023-09-30T09:55:25;23.00;99.90
7934;DHT22;4012;48.896;9.192;2023-09-30T09:57:51;22.80;99.90
7934;DHT22;4012;48.896;9.192;2023-09-30T10:00:19;22.80;99.90
7934;DHT22;4012;48.896;9.192;2023-09-30T10:02:46;22.90;99.90
7934;DHT22;4012;48.896;9.192;2023-09-30T10:05:13;22.50;99.90
7934;DHT22;4012;48.896;9.192;2023-09-30T10:07:44;21.90;99.90
7934;DHT22;4012;48.896;9.192;2023-09-30T10:10:16;21.50;99.90
7934;DHT22;4012;48.896;9.192;2023-09-30T10:12:43;21.10;99.90
7934;DHT22;4012;48.896;9.192;2023-09-30T10:18:02;24.10;99.90
7934;DHT22;4012;48.896;9.192;2023-09-30T10:20:36;23.70;99.90
7934;DHT22;4012;48.896;9.192;2023-09-30T10:25:45;22.40;99.90
7934;DHT22;4012;48.896;9.192;2023-09-30T10:28:43;21.90;99.90
7934;DHT22;4012;48.896;9.192;2023-09-30T10:31:22;21.40;99.90
7934;DHT22;4012;48.896;9.192;2023-09-30T10:36:32;20.90;99.90
7934;DHT22;4012;48.896;9.192;2023-09-30T10:38:59;20.90;99.90
7934;DHT22;4012;48.896;9.192;2023-09-30T10:46:55;21.90;99.90
7934;DHT22;4012;48.896;9.192;2023-09-30T10:51:59;22.50;99.90
7934;DHT22;4012;48.896;9.192;2023-09-30T10:54:32;22.80;99.90
7934;DHT22;4012;48.896;9.192;2023-09-30T10:56:59;22.30;99.90
7934;DHT22;4012;48.896;9.192;2023-09-30T10:59:27;22.70;99.90
7934;DHT22;4012;48.896;9.192;2023-09-30T11:01:53;22.80;99.90
7934;DHT22;4012;48.896;9.192;2023-09-30T11:04:19;23.20;99.90
7934;DHT22;4012;48.896;9.192;2023-09-30T11:06:46;23.20;99.90
7934;DHT22;4012;48.896;9.192;2023-09-30T11:09:21;22.90;99.90
7934;DHT22;4012;48.896;9.192;2023-09-30T11:11:51;22.50;99.90
7934;DHT22;4012;48.896;9.192;2023-09-30T11:14:30;22.20;99.90
7934;DHT22;4012;48.896;9.192;2023-09-30T11:16:58;21.60;99.90
7934;DHT22;4012;48.896;9.192;2023-09-30T11:19:24;21.70;99.90
7934;DHT22;4012;48.896;9.192;2023-09-30T11:21:54;21.50;99.90
7934;DHT22;4012;48.896;9.192;2023-09-30T11:24:21;21.20;99.90
7934;DHT22;4012;48.896;9.192;2023-09-30T11:26:47;21.00;99.90
7934;DHT22;4012;48.896;9.192;2023-09-30T11:29:14;21.10;99.90
7934;DHT22;4012;48.896;9.192;2023-09-30T11:31:48;21.30;99.90
7934;DHT22;4012;48.896;9.192;2023-09-30T11:34:15;21.60;99.90
7934;DHT22;4012;48.896;9.192;2023-09-30T11:36:50;21.50;99.90
7934;DHT22;4012;48.896;9.192;2023-09-30T11:39:26;21.30;99.90
7934;DHT22;4012;48.896;9.192;2023-09-30T11:41:53;21.40;99.90
7934;DHT22;4012;48.896;9.192;2023-09-30T11:44:21;22.10;99.90
7934;DHT22;4012;48.896;9.192;2023-09-30T11:47:07;22.60;99.90
7934;DHT22;4012;48.896;9.192;2023-09-30T11:49:35;22.20;99.90
7934;DHT22;4012;48.896;9.192;2023-09-30T11:52:07;21.70;99.90
7934;DHT22;4012;48.896;9.192;2023-09-30T11:57:01;21.80;99.90
7934;DHT22;4012;48.896;9.192;2023-09-30T11:59:27;22.00;99.90
7934;DHT22;4012;48.896;9.192;2023-09-30T12:01:53;22.10;99.90
7934;DHT22;4012;48.896;9.192;2023-09-30T12:04:20;22.40;99.90
7934;DHT22;4012;48.896;9.192;2023-09-30T12:06:47;22.60;99.90
7934;DHT22;4012;48.896;9.192;2023-09-30T12:09:14;22.60;99.90
7934;DHT22;4012;48.896;9.192;2023-09-30T12:11:41;22.70;99.90
7934;DHT22;4012;48.896;9.192;2023-09-30T12:14:10;22.60;99.90
7934;DHT22;4012;48.896;9.192;2023-09-30T12:16:36;22.00;99.90
7934;DHT22;4012;48.896;9.192;2023-09-30T12:19:02;22.20;99.90
7934;DHT22;4012;48.896;9.192;2023-09-30T12:21:28;22.50;99.90
7934;DHT22;4012;48.896;9.192;2023-09-30T12:23:54;22.70;99.90
7934;DHT22;4012;48.896;9.192;2023-09-30T12:26:19;22.20;99.90
7934;DHT22;4012;48.896;9.192;2023-09-30T12:28:46;22.60;99.90
7934;DHT22;4012;48.896;9.192;2023-09-30T12:31:12;22.50;99.90
7934;DHT22;4012;48.896;9.192;2023-09-30T12:33:39;22.40;99.90
7934;DHT22;4012;48.896;9.192;2023-09-30T12:36:05;22.20;99.90
7934;DHT22;4012;48.896;9.192;2023-09-30T12:38:31;21.70;99.90
7934;DHT22;4012;48.896;9.192;2023-09-30T12:40:56;21.60;99.90
7934;DHT22;4012;48.896;9.192;2023-09-30T12:43:22;21.90;99.90
7934;DHT22;4012;48.896;9.192;2023-09-30T12:45:48;22.00;99.90
7934;DHT22;4012;48.896;9.192;2023-09-30T12:48:14;21.30;99.90
7934;DHT22;4012;48.896;9.192;2023-09-30T12:50:41;21.10;99.90
7934;DHT22;4012;48.896;9.192;2023-09-30T12:53:06;21.20;99.90
7934;DHT22;4012;48.896;9.192;2023-09-30T12:55:32;21.50;99.90
7934;DHT22;4012;48.896;9.192;2023-09-30T12:57:58;21.10;99.90
7934;DHT22;4012;48.896;9.192;2023-09-30T13:00:25;21.20;99.90
7934;DHT22;4012;48.896;9.192;2023-09-30T13:02:51;21.40;99.90
7934;DHT22;4012;48.896;9.192;2023-09-30T13:05:17;21.40;99.90
7934;DHT22;4012;48.896;9.192;2023-09-30T13:07:43;21.40;99.90
7934;DHT22;4012;48.896;9.192;2023-09-30T13:10:09;21.70;99.90
7934;DHT22;4012;48.896;9.192;2023-09-30T13:12:35;21.80;99.90
7934;DHT22;4012;48.896;9.192;2023-09-30T13:15:01;21.70;99.90
7934;DHT22;4012;48.896;9.192;2023-09-30T13:17:27;21.90;99.90
7934;DHT22;4012;48.896;9.192;2023-09-30T13:19:54;21.80;99.90
7934;DHT22;4012;48.896;9.192;2023-09-30T13:22:21;21.80;99.90
7934;DHT22;4012;48.896;9.192;2023-09-30T13:24:46;22.10;99.90
7934;DHT22;4012;48.896;9.192;2023-09-30T13:27:12;22.00;99.90
7934;DHT22;4012;48.896;9.192;2023-09-30T13:29:41;21.80;99.90
7934;DHT22;4012;48.896;9.192;2023-09-30T13:32:08;21.90;99.90
7934;DHT22;4012;48.896;9.192;2023-09-30T13:34:34;21.90;99.90
7934;DHT22;4012;48.896;9.192;2023-09-30T13:36:59;21.80;99.90
7934;DHT22;4012;48.896;9.192;2023-09-30T13:39:25;21.60;99.90
7934;DHT22;4012;48.896;9.192;2023-09-30T13:41:51;21.70;99.90
7934;DHT22;4012;48.896;9.192;2023-09-30T13:44:17;21.70;99.90
7934;DHT22;4012;48.896;9.192;2023-09-30T13:46:43;21.50;99.90
7934;DHT22;4012;48.896;9.192;2023-09-30T13:49:09;21.30;99.90
7934;DHT22;4012;48.896;9.192;2023-09-30T13:51:35;21.50;99.90
7934;DHT22;4012;48.896;9.192;2023-09-30T13:54:00;21.40;99.90
7934;DHT22;4012;48.896;9.192;2023-09-30T13:56:26;21.30;99.90
7934;DHT22;4012;48.896;9.192;2023-09-30T13:58:53;21.00;99.90
7934;DHT22;4012;48.896;9.192;2023-09-30T14:01:18;21.00;99.90
7934;DHT22;4012;48.896;9.192;2023-09-30T14:03:45;21.10;99.90
7934;DHT22;4012;48.896;9.192;2023-09-30T14:06:15;21.10;99.90
7934;DHT22;4012;48.896;9.192;2023-09-30T14:08:41;21.20;99.90
7934;DHT22;4012;48.896;9.192;2023-09-30T14:11:10;21.10;99.90
7934;DHT22;4012;48.896;9.192;2023-09-30T14:13:37;21.00;99.90
7934;DHT22;4012;48.896;9.192;2023-09-30T14:16:02;21.10;99.90
7934;DHT22;4012;48.896;9.192;2023-09-30T14:18:28;21.00;99.90
7934;DHT22;4012;48.896;9.192;2023-09-30T14:20:53;21.10;99.90
7934;DHT22;4012;48.896;9.192;2023-09-30T14:23:19;21.10;99.90
7934;DHT22;4012;48.896;9.192;2023-09-30T14:25:45;21.20;99.90
7934;DHT22;4012;48.896;9.192;2023-09-30T14:28:10;21.20;99.90
7934;DHT22;4012;48.896;9.192;2023-09-30T14:30:36;21.40;99.90
7934;DHT22;4012;48.896;9.192;2023-09-30T14:33:02;21.30;99.90
7934;DHT22;4012;48.896;9.192;2023-09-30T14:35:28;21.10;99.90
7934;DHT22;4012;48.896;9.192;2023-09-30T14:37:54;21.10;99.90
7934;DHT22;4012;48.896;9.192;2023-09-30T14:40:22;21.10;99.90
7934;DHT22;4012;48.896;9.192;2023-09-30T14:42:47;21.20;99.90
7934;DHT22;4012;48.896;9.192;2023-09-30T14:45:13;21.00;99.90
7934;DHT22;4012;48.896;9.192;2023-09-30T14:47:38;20.90;99.90
7934;DHT22;4012;48.896;9.192;2023-09-30T14:50:07;20.90;99.90
7934;DHT22;4012;48.896;9.192;2023-09-30T14:52:33;20.50;99.90
7934;DHT22;4012;48.896;9.192;2023-09-30T14:54:59;20.60;99.90
7934;DHT22;4012;48.896;9.192;2023-09-30T14:57:25;20.50;99.90
7934;DHT22;4012;48.896;9.192;2023-09-30T14:59:51;20.60;99.90
7934;DHT22;4012;48.896;9.192;2023-09-30T15:02:17;20.60;99.90
7934;DHT22;4012;48.896;9.192;2023-09-30T15:04:42;20.70;99.90
7934;DHT22;4012;48.896;9.192;2023-09-30T15:07:08;20.60;99.90
7934;DHT22;4012;48.896;9.192;2023-09-30T15:09:34;20.70;99.90
7934;DHT22;4012;48.896;9.192;2023-09-30T15:12:00;20.80;99.90
7934;DHT22;4012;48.896;9.192;2023-09-30T15:14:26;20.70;99.90
7934;DHT22;4012;48.896;9.192;2023-09-30T15:16:51;20.50;99.90
7934;DHT22;4012;48.896;9.192;2023-09-30T15:19:17;20.60;99.90
7934;DHT22;4012;48.896;9.192;2023-09-30T15:21:43;20.50;99.90
7934;DHT22;4012;48.896;9.192;2023-09-30T15:24:09;20.60;99.90
7934;DHT22;4012;48.896;9.192;2023-09-30T15:26:36;20.60;99.90
7934;DHT22;4012;48.896;9.192;2023-09-30T15:29:01;20.70;99.90
7934;DHT22;4012;48.896;9.192;2023-09-30T15:31:29;20.60;99.90
7934;DHT22;4012;48.896;9.192;2023-09-30T15:33:56;20.60;99.90
7934;DHT22;4012;48.896;9.192;2023-09-30T15:36:21;20.50;99.90
7934;DHT22;4012;48.896;9.192;2023-09-30T15:38:47;20.50;99.90
7934;DHT22;4012;48.896;9.192;2023-09-30T15:41:14;20.30;99.90
7934;DHT22;4012;48.896;9.192;2023-09-30T15:43:40;20.40;99.90
7934;DHT22;4012;48.896;9.192;2023-09-30T15:46:08;20.50;99.90
7934;DHT22;4012;48.896;9.192;2023-09-30T15:48:34;20.50;99.90
7934;DHT22;4012;48.896;9.192;2023-09-30T15:51:00;20.50;99.90
7934;DHT22;4012;48.896;9.192;2023-09-30T15:53:25;20.40;99.90
7934;DHT22;4012;48.896;9.192;2023-09-30T15:55:53;20.40;99.90
7934;DHT22;4012;48.896;9.192;2023-09-30T15:58:21;20.50;99.90
7934;DHT22;4012;48.896;9.192;2023-09-30T16:00:49;20.60;99.90
7934;DHT22;4012;48.896;9.192;2023-09-30T16:03:15;20.50;99.90
7934;DHT22;4012;48.896;9.192;2023-09-30T16:05:40;20.40;99.90
7934;DHT22;4012;48.896;9.192;2023-09-30T16:08:07;20.30;99.90
7934;DHT22;4012;48.896;9.192;2023-09-30T16:10:33;20.10;99.90
7934;DHT22;4012;48.896;9.192;2023-09-30T16:12:59;20.10;99.90
7934;DHT22;4012;48.896;9.192;2023-09-30T16:15:25;20.10;99.90
7934;DHT22;4012;48.896;9.192;2023-09-30T16:17:52;20.00;99.90
7934;DHT22;4012;48.896;9.192;2023-09-30T16:20:17;20.00;99.90